^^
Grace C. Lehan Memorial Weather Station Historical Data
Daily Summary for June 26, 2021 Units:  English    Metric   Both
Daily Weekly Monthly Yearly
  High: Low: Average:
Temperature: 63.7 °F 61 °F 61.6 °F
Dew Point: 60.3 °F 56 °F 57.7 °F
Humidity: 90% 82% 87%
Wind Speed: 0.1mph 0mph 0mph
Wind Gust: 4mph - -
Wind- - WSW
Pressure: 30.08 in 30.01 in -
Precipitation: 0.00 in    
 
 
Tabular Data for June 26, 2021
Time Temperature Dew Point Pressure Wind Wind Speed Wind Gust Humidity Rainfall Rate (Hourly) solar
00:04 61.6 °F 56.1 °F 30.08 in Calm     82% 0.00 in 0 W/m2
00:09 61.6 °F 56 °F 30.08 in Calm   1 mph 82% 0.00 in 0 W/m2
00:14 61.4 °F 56.1 °F 30.07 in Calm   1 mph 82.7% 0.00 in 0 W/m2
00:19 61.4 °F 56.2 °F 30.07 in Calm   1 mph 83% 0.00 in 0 W/m2
00:24 61.4 °F 56.2 °F 30.07 in Calm   1 mph 83% 0.00 in 0 W/m2
00:29 61.3 °F 56.1 °F 30.07 in Calm   1 mph 83% 0.00 in 0 W/m2
00:34 61.3 °F 56.3 °F 30.07 in Calm   1 mph 83.8% 0.00 in 0 W/m2
00:39 61.2 °F 56.4 °F 30.07 in WSW 0.1 mph 4 mph 84% 0.00 in 0 W/m2
00:44 61.2 °F 56.3 °F 30.07 in Calm   4 mph 84% 0.00 in 0 W/m2
00:49 61.2 °F 56.3 °F 30.07 in Calm   4 mph 84% 0.00 in 0 W/m2
00:54 61.2 °F 56.3 °F 30.07 in Calm   4 mph 84% 0.00 in 0 W/m2
00:59 61.2 °F 56.3 °F 30.07 in Calm   4 mph 84% 0.00 in 0 W/m2
01:04 61.2 °F 56.3 °F 30.07 in Calm   4 mph 84% 0.00 in 0 W/m2
01:09 61.2 °F 56.4 °F 30.06 in Calm     84.2% 0.00 in 0 W/m2
01:14 61.1 °F 56.6 °F 30.06 in Calm     85% 0.00 in 0 W/m2
01:19 61.1 °F 56.6 °F 30.06 in Calm     85% 0.00 in 0 W/m2
01:24 61.1 °F 56.6 °F 30.06 in Calm     85% 0.00 in 0 W/m2
01:29 61.1 °F 56.5 °F 30.06 in Calm     85% 0.00 in 0 W/m2
01:34 61.1 °F 56.5 °F 30.05 in Calm     85% 0.00 in 0 W/m2
01:39 61 °F 56.7 °F 30.05 in Calm     85.6% 0.00 in 0 W/m2
01:44 61 °F 56.8 °F 30.05 in Calm     86% 0.00 in 0 W/m2
01:49 61 °F 56.8 °F 30.05 in Calm     86% 0.00 in 0 W/m2
01:54 61 °F 56.8 °F 30.05 in Calm     86% 0.00 in 0 W/m2
01:59 61 °F 56.8 °F 30.05 in Calm     86% 0.00 in 0 W/m2
02:04 61 °F 56.8 °F 30.05 in Calm     86% 0.00 in 0 W/m2
02:09 61 °F 56.8 °F 30.05 in Calm     86% 0.00 in 0 W/m2
02:14 61 °F 56.8 °F 30.04 in Calm     86% 0.00 in 0 W/m2
02:19 61 °F 57 °F 30.05 in Calm     86.6% 0.00 in 0 W/m2
02:24 61.1 °F 57.2 °F 30.04 in Calm     87% 0.00 in 0 W/m2
02:29 61.1 °F 57.2 °F 30.04 in Calm     87% 0.00 in 0 W/m2
02:34 61.1 °F 57.3 °F 30.04 in Calm     87% 0.00 in 0 W/m2
02:39 61.2 °F 57.3 °F 30.04 in Calm     87% 0.00 in 0 W/m2
02:44 61.3 °F 57.4 °F 30.04 in Calm     87% 0.00 in 0 W/m2
02:49 61.3 °F 57.4 °F 30.04 in Calm     87% 0.00 in 0 W/m2
02:54 61.3 °F 57.4 °F 30.04 in Calm     87% 0.00 in 0 W/m2
02:59 61.4 °F 57.5 °F 30.04 in Calm     87% 0.00 in 0 W/m2
03:04 61.4 °F 57.5 °F 30.04 in Calm     87% 0.00 in 0 W/m2
03:09 61.5 °F 57.6 °F 30.03 in Calm     87% 0.00 in 0 W/m2
03:14 61.6 °F 57.7 °F 30.03 in Calm     87% 0.00 in 0 W/m2
03:19 61.7 °F 57.8 °F 30.03 in Calm     87% 0.00 in 0 W/m2
03:24 61.8 °F 57.9 °F 30.03 in Calm     87% 0.00 in 0 W/m2
03:29 61.8 °F 57.9 °F 30.03 in Calm     87% 0.00 in 0 W/m2
03:34 61.9 °F 58 °F 30.03 in Calm     87% 0.00 in 0 W/m2
03:39 62 °F 58.1 °F 30.03 in Calm     87% 0.00 in 0 W/m2
03:44 62 °F 58.1 °F 30.03 in Calm     87% 0.00 in 0 W/m2
03:49 62 °F 58.1 °F 30.03 in Calm     87% 0.00 in 0 W/m2
03:54 62 °F 58.1 °F 30.03 in Calm     87% 0.00 in 0 W/m2
03:59 62 °F 58.1 °F 30.03 in Calm   1 mph 87% 0.00 in 0 W/m2
04:00 62 °F 58.1 °F 30.02 in Calm   1 mph 87% 0.00 in 0 W/m2
04:09 62 °F 58.2 °F 30.02 in Calm   1 mph 87.2% 0.00 in 0 W/m2
04:14 62 °F 58.2 °F 30.02 in Calm   1 mph 87.4% 0.00 in 0 W/m2
04:19 62 °F 58.4 °F 30.02 in Calm   1 mph 88% 0.00 in 0 W/m2
04:24 62 °F 58.4 °F 30.02 in Calm   1 mph 88% 0.00 in 0 W/m2
04:29 62 °F 58.4 °F 30.02 in WSW 0.1 mph 2 mph 88% 0.00 in 0 W/m2
04:34 62 °F 58.4 °F 30.02 in Calm   2 mph 88% 0.00 in 0 W/m2
04:39 62 °F 58.4 °F 30.02 in Calm     88% 0.00 in 0 W/m2
04:44 62 °F 58.4 °F 30.02 in Calm   1 mph 88% 0.00 in 0 W/m2
04:49 62 °F 58.4 °F 30.02 in Calm   1 mph 88% 0.00 in 0 W/m2
04:54 62 °F 58.4 °F 30.02 in Calm   1 mph 88% 0.00 in 0 W/m2
04:59 62 °F 58.4 °F 30.02 in Calm   1 mph 88% 0.00 in 0 W/m2
05:04 62 °F 58.4 °F 30.01 in Calm   1 mph 88% 0.00 in 0 W/m2
05:09 61.9 °F 58.3 °F 30.02 in Calm   1 mph 88% 0.00 in 0 W/m2
05:14 61.9 °F 58.4 °F 30.02 in Calm   1 mph 88.3% 0.00 in 0 W/m2
05:19 61.8 °F 58.5 °F 30.02 in Calm   1 mph 89% 0.00 in 0 W/m2
05:24 61.8 °F 58.5 °F 30.02 in Calm   1 mph 89% 0.00 in 0 W/m2
05:29 61.7 °F 58.5 °F 30.02 in Calm   1 mph 89% 0.00 in 7 W/m2
05:34 61.7 °F 58.4 °F 30.02 in Calm   1 mph 89% 0.00 in 11 W/m2
05:39 61.7 °F 58.4 °F 30.02 in Calm     89% 0.00 in 12 W/m2
05:44 61.7 °F 58.4 °F 30.02 in Calm     89% 0.00 in 16 W/m2
05:49 61.7 °F 58.4 °F 30.01 in Calm     89% 0.00 in 19 W/m2
05:54 61.6 °F 58.4 °F 30.01 in Calm     89% 0.00 in 25 W/m2
05:59 61.7 °F 58.7 °F 30.01 in Calm     89.8% 0.00 in 30 W/m2
06:04 61.7 °F 58.7 °F 30.01 in Calm     90% 0.00 in 35 W/m2
06:09 61.7 °F 58.8 °F 30.01 in Calm     90% 0.00 in 37 W/m2
06:14 61.8 °F 58.8 °F 30.01 in Calm     90% 0.00 in 40 W/m2
06:19 61.9 °F 58.9 °F 30.01 in Calm     90% 0.00 in 42 W/m2
06:24 62 °F 59.1 °F 30.02 in Calm     90% 0.00 in 46 W/m2
06:29 62.1 °F 59.2 °F 30.02 in Calm     90% 0.00 in 49 W/m2
06:34 62.3 °F 59.3 °F 30.02 in Calm     90% 0.00 in 69 W/m2
06:39 62.4 °F 59.5 °F 30.02 in Calm     90% 0.00 in 70 W/m2
06:44 62.7 °F 59.7 °F 30.02 in Calm     90% 0.00 in 72 W/m2
06:49 63 °F 60 °F 30.01 in Calm     90% 0.00 in 88 W/m2
06:54 63.4 °F 60.2 °F 30.01 in Calm     89.3% 0.00 in 98 W/m2
06:58 63.7 °F 60.3 °F 30.01 in Calm     88.8% 0.00 in 98 W/m2
Hartford County Weather
Compliments of Weather Underground - 2 mb